createdAt,value
2022-11-05T00:00:00.443Z,24.7
2022-11-05T00:01:02.614Z,24.7
2022-11-05T00:02:05.124Z,24.7
2022-11-05T00:03:08.354Z,24.7
2022-11-05T00:04:12.028Z,24.7
2022-11-05T00:05:14.814Z,24.7
2022-11-05T00:06:17.281Z,24.8
2022-11-05T00:07:19.770Z,24.8
2022-11-05T00:08:21.968Z,24.8
2022-11-05T00:09:24.436Z,24.8
2022-11-05T00:10:26.343Z,24.8
2022-11-05T00:11:28.257Z,24.8
2022-11-05T00:12:30.727Z,24.8
2022-11-05T00:13:32.645Z,24.9
2022-11-05T00:14:35.116Z,24.9
2022-11-05T00:15:37.327Z,24.9
2022-11-05T00:16:39.799Z,24.9
2022-11-05T00:17:42.274Z,24.9
2022-11-05T00:18:44.480Z,24.9
2022-11-05T00:19:46.423Z,24.9
2022-11-05T00:20:48.656Z,24.9
2022-11-05T00:21:51.111Z,24.9
2022-11-05T00:22:53.026Z,24.9
2022-11-05T00:23:55.221Z,24.9
2022-11-05T00:24:57.428Z,24.9
2022-11-05T00:25:59.614Z,24.9
2022-11-05T00:27:01.823Z,24.9
2022-11-05T00:28:03.755Z,24.9
2022-11-05T00:29:05.958Z,24.9
2022-11-05T00:30:08.442Z,24.9
2022-11-05T00:31:10.642Z,24.9
2022-11-05T00:32:13.111Z,24.9
2022-11-05T00:33:15.590Z,24.9
2022-11-05T00:34:18.069Z,25
2022-11-05T00:35:20.290Z,25
2022-11-05T00:36:22.619Z,25
2022-11-05T00:37:25.124Z,25
2022-11-05T00:38:27.590Z,25
2022-11-05T00:39:30.064Z,25
2022-11-05T00:40:32.528Z,25
2022-11-05T00:41:35.023Z,25
2022-11-05T00:42:37.198Z,25
2022-11-05T00:43:39.387Z,25
2022-11-05T00:44:41.295Z,25
2022-11-05T00:45:43.775Z,25.1
2022-11-05T00:46:45.937Z,25.1
2022-11-05T00:47:48.446Z,25.1
2022-11-05T00:48:50.912Z,25.1
2022-11-05T00:49:53.412Z,25.1
2022-11-05T00:50:56.357Z,25.1
2022-11-05T00:51:58.863Z,25.1
2022-11-05T00:53:01.137Z,25.1
2022-11-05T00:54:03.612Z,25.2
2022-11-05T00:55:06.075Z,25.2
2022-11-05T00:56:08.008Z,25.2
2022-11-05T00:57:10.494Z,25.2
2022-11-05T00:58:12.963Z,25.2
2022-11-05T00:59:15.425Z,25.2
2022-11-05T01:00:17.910Z,25.2
2022-11-05T01:01:20.797Z,25.2
2022-11-05T01:02:23.845Z,25.2
2022-11-05T01:03:26.227Z,25.2
2022-11-05T01:04:28.704Z,25.2
2022-11-05T01:05:30.951Z,25.2
2022-11-05T01:06:32.919Z,25.2
2022-11-05T01:07:35.477Z,25.3
2022-11-05T01:08:37.670Z,25.3
2022-11-05T01:09:39.870Z,25.3
2022-11-05T01:10:42.070Z,25.3
2022-11-05T01:11:43.987Z,25.3
2022-11-05T01:12:46.202Z,25.3
2022-11-05T01:13:48.135Z,25.3
2022-11-05T01:14:50.325Z,25.3
2022-11-05T01:15:52.528Z,25.3
2022-11-05T01:16:54.721Z,25.3
2022-11-05T01:17:57.221Z,25.3
2022-11-05T01:18:59.681Z,25.3
2022-11-05T01:20:01.883Z,25.3
2022-11-05T01:21:03.813Z,25.3
2022-11-05T01:22:06.151Z,25.3
2022-11-05T01:24:13.388Z,25.3
2022-11-05T01:25:15.579Z,25.3
2022-11-05T01:26:17.775Z,25.3
2022-11-05T01:27:20.236Z,25.4
2022-11-05T01:28:22.354Z,25.3
2022-11-05T01:29:24.697Z,25.4
2022-11-05T01:30:26.896Z,25.4
2022-11-05T01:31:29.376Z,25.4
2022-11-05T01:32:31.583Z,25.4
2022-11-05T01:33:34.053Z,25.4
2022-11-05T01:34:36.532Z,25.4
2022-11-05T01:35:38.726Z,25.4
2022-11-05T01:36:41.255Z,25.4
2022-11-05T01:37:43.778Z,25.4
2022-11-05T01:38:46.007Z,25.4
2022-11-05T01:39:48.478Z,25.4
2022-11-05T01:40:50.962Z,25.4
2022-11-05T01:41:53.435Z,25.4
2022-11-05T01:42:55.636Z,25.4
2022-11-05T01:43:57.832Z,25.4
2022-11-05T01:45:00.302Z,25.4
2022-11-05T01:46:01.950Z,25.4
2022-11-05T01:47:04.428Z,25.4
2022-11-05T01:48:06.860Z,25.4
2022-11-05T01:49:09.550Z,25.4
2022-11-05T01:50:12.016Z,25.4
2022-11-05T01:51:14.482Z,25.4
2022-11-05T01:52:16.701Z,25.4
2022-11-05T01:53:18.945Z,25.4
2022-11-05T01:54:21.185Z,25.4
2022-11-05T01:55:23.433Z,25.4
2022-11-05T01:56:25.902Z,25.4
2022-11-05T01:57:27.807Z,25.4
2022-11-05T01:58:30.024Z,25.4
2022-11-05T01:59:32.484Z,25.4
2022-11-05T02:00:34.697Z,25.4
2022-11-05T02:01:37.747Z,25.4
2022-11-05T02:02:40.840Z,25.4
2022-11-05T02:03:43.228Z,25.4
2022-11-05T02:04:45.693Z,25.4
2022-11-05T02:05:47.603Z,25.4
2022-11-05T02:06:49.798Z,25.4
2022-11-05T02:07:52.304Z,25.4
2022-11-05T02:08:54.809Z,25.4
2022-11-05T02:09:57.312Z,25.5
2022-11-05T02:10:59.509Z,25.4
2022-11-05T02:12:01.707Z,25.4
2022-11-05T02:13:04.224Z,25.5
2022-11-05T02:14:06.127Z,25.5
2022-11-05T02:15:08.616Z,25.5
2022-11-05T02:16:10.513Z,25.5
2022-11-05T02:17:12.986Z,25.5
2022-11-05T02:18:15.468Z,25.5
2022-11-05T02:19:17.943Z,25.5
2022-11-05T02:20:20.408Z,25.5
2022-11-05T02:21:22.874Z,25.5
2022-11-05T02:22:25.348Z,25.5
2022-11-05T02:23:27.840Z,25.5
2022-11-05T02:24:30.076Z,25.5
2022-11-05T02:25:32.722Z,25.5
2022-11-05T02:26:34.890Z,25.5
2022-11-05T02:27:37.112Z,25.5
2022-11-05T02:28:39.029Z,25.5
2022-11-05T02:29:41.233Z,25.5
2022-11-05T02:30:43.153Z,25.5
2022-11-05T02:31:45.643Z,25.5
2022-11-05T02:32:48.131Z,25.5
2022-11-05T02:33:50.066Z,25.5
2022-11-05T02:34:52.257Z,25.5
2022-11-05T02:35:54.456Z,25.5
2022-11-05T02:36:56.924Z,25.5
2022-11-05T02:37:59.122Z,25.5
2022-11-05T02:39:01.602Z,25.5
2022-11-05T02:40:04.529Z,25.5
2022-11-05T02:41:07.034Z,25.5
2022-11-05T02:42:09.230Z,25.5
2022-11-05T02:43:12.379Z,25.5
2022-11-05T02:44:15.415Z,25.5
2022-11-05T02:45:17.892Z,25.5
2022-11-05T02:46:19.521Z,25.5
2022-11-05T02:47:21.987Z,25.5
2022-11-05T02:48:24.455Z,25.5
2022-11-05T02:49:26.656Z,25.5
2022-11-05T02:50:29.138Z,25.5
2022-11-05T02:51:30.495Z,25.5
2022-11-05T02:52:32.966Z,25.5
2022-11-05T02:53:35.433Z,25.5
2022-11-05T02:54:37.359Z,25.5
2022-11-05T02:55:39.603Z,25.5
2022-11-05T02:56:42.102Z,25.5
2022-11-05T02:57:44.028Z,25.5
2022-11-05T02:58:45.669Z,25.5
2022-11-05T02:59:48.129Z,25.5
2022-11-05T03:00:50.638Z,25.5
2022-11-05T03:01:53.390Z,25.5
2022-11-05T03:02:55.866Z,25.5
2022-11-05T03:03:58.564Z,25.5
2022-11-05T03:05:01.036Z,25.5
2022-11-05T03:06:02.983Z,25.5
2022-11-05T03:07:05.583Z,25.5
2022-11-05T03:08:07.495Z,25.5
2022-11-05T03:09:09.691Z,25.5
2022-11-05T03:10:12.173Z,25.5
2022-11-05T03:11:14.118Z,25.5
2022-11-05T03:12:16.358Z,25.5
2022-11-05T03:13:18.844Z,25.5
2022-11-05T03:14:21.340Z,25.5
2022-11-05T03:15:23.538Z,25.5
2022-11-05T03:16:25.711Z,25.5
2022-11-05T03:17:27.896Z,25.5
2022-11-05T03:18:29.805Z,25.5
2022-11-05T03:19:32.335Z,25.5
2022-11-05T03:20:34.807Z,25.5
2022-11-05T03:21:37.291Z,25.5
2022-11-05T03:22:39.757Z,25.5
2022-11-05T03:23:42.230Z,25.5
2022-11-05T03:24:44.721Z,25.5
2022-11-05T03:25:47.010Z,25.5
2022-11-05T03:26:49.531Z,25.5
2022-11-05T03:27:52.146Z,25.5
2022-11-05T03:28:54.631Z,25.5
2022-11-05T03:29:57.098Z,25.5
2022-11-05T03:30:59.286Z,25.5
2022-11-05T03:32:00.956Z,25.6
2022-11-05T03:33:03.474Z,25.5
2022-11-05T03:34:05.390Z,25.6
2022-11-05T03:35:07.597Z,25.6
2022-11-05T03:36:10.058Z,25.6
2022-11-05T03:37:11.964Z,25.6
2022-11-05T03:38:14.135Z,25.5
2022-11-05T03:39:16.606Z,25.5
2022-11-05T03:40:19.075Z,25.6
2022-11-05T03:41:21.569Z,25.6
2022-11-05T03:42:23.786Z,25.5
2022-11-05T03:43:26.387Z,25.5
2022-11-05T03:44:28.300Z,25.6
2022-11-05T03:45:30.508Z,25.6
2022-11-05T03:46:32.699Z,25.6
2022-11-05T03:47:34.631Z,25.6
2022-11-05T03:48:37.032Z,25.6
2022-11-05T03:49:39.118Z,25.6
2022-11-05T03:50:42.619Z,25.6
2022-11-05T03:51:44.818Z,25.6
2022-11-05T03:52:47.281Z,25.6
2022-11-05T03:53:49.778Z,25.6
2022-11-05T03:54:51.965Z,25.6
2022-11-05T03:55:54.438Z,25.6
2022-11-05T03:56:56.921Z,25.6
2022-11-05T03:57:59.433Z,25.6
2022-11-05T03:59:01.663Z,25.6
2022-11-05T04:00:03.857Z,25.6
2022-11-05T04:01:06.051Z,25.6
2022-11-05T04:02:09.047Z,25.6
2022-11-05T04:03:13.322Z,25.6
2022-11-05T04:04:15.932Z,25.6
2022-11-05T04:05:17.306Z,25.5
2022-11-05T04:06:19.798Z,25.5
2022-11-05T04:07:21.996Z,25.5
2022-11-05T04:08:24.197Z,25.5
2022-11-05T04:09:26.668Z,25.5
2022-11-05T04:10:29.131Z,25.4
2022-11-05T04:11:31.602Z,25.4
2022-11-05T04:12:34.102Z,25.4
2022-11-05T04:13:36.624Z,25.4
2022-11-05T04:14:38.849Z,25.4
2022-11-05T04:15:41.048Z,25.4
2022-11-05T04:16:43.244Z,25.3
2022-11-05T04:17:45.444Z,25.3
2022-11-05T04:18:47.634Z,25.3
2022-11-05T04:19:50.126Z,25.3
2022-11-05T04:20:52.601Z,25.3
2022-11-05T04:21:55.076Z,25.3
2022-11-05T04:22:57.271Z,25.3
2022-11-05T04:23:59.491Z,25.2
2022-11-05T04:25:01.683Z,25.2
2022-11-05T04:26:03.901Z,25.2
2022-11-05T04:27:06.125Z,25.2
2022-11-05T04:28:08.364Z,25.2
2022-11-05T04:29:10.609Z,25.2
2022-11-05T04:30:13.113Z,25.2
2022-11-05T04:31:15.006Z,25.2
2022-11-05T04:32:17.480Z,25.2
2022-11-05T04:33:19.677Z,25.2
2022-11-05T04:34:21.890Z,25.2
2022-11-05T04:35:24.131Z,25.1
2022-11-05T04:36:26.334Z,25.1
2022-11-05T04:37:28.261Z,25.1
2022-11-05T04:38:30.166Z,25.1
2022-11-05T04:39:32.640Z,25.1
2022-11-05T04:40:35.113Z,25.1
2022-11-05T04:41:37.576Z,25.1
2022-11-05T04:42:40.057Z,25.1
2022-11-05T04:43:42.275Z,25.1
2022-11-05T04:44:44.803Z,25.1
2022-11-05T04:45:47.300Z,25.1
2022-11-05T04:46:49.235Z,25.1
2022-11-05T04:47:51.728Z,25.1
2022-11-05T04:48:53.894Z,25.1
2022-11-05T04:49:57.086Z,25.1
2022-11-05T04:50:59.554Z,25.1
2022-11-05T04:52:01.754Z,25.1
2022-11-05T04:53:04.257Z,25.1
2022-11-05T04:54:06.476Z,25.1
2022-11-05T04:55:08.676Z,25.1
2022-11-05T04:56:11.146Z,25
2022-11-05T04:57:13.689Z,25
2022-11-05T04:58:15.884Z,25
2022-11-05T04:59:18.173Z,25
2022-11-05T05:00:20.803Z,25
2022-11-05T05:01:23.920Z,25
2022-11-05T05:02:26.618Z,25
2022-11-05T05:03:29.100Z,25
2022-11-05T05:04:31.592Z,25
2022-11-05T05:05:33.790Z,25
2022-11-05T05:06:36.263Z,25
2022-11-05T05:07:38.763Z,25
2022-11-05T05:08:40.684Z,25
2022-11-05T05:09:42.855Z,25
2022-11-05T05:10:45.326Z,25
2022-11-05T05:11:47.230Z,25
2022-11-05T05:12:49.694Z,25
2022-11-05T05:13:51.056Z,25
2022-11-05T05:14:53.542Z,25
2022-11-05T05:15:56.061Z,25
2022-11-05T05:16:58.569Z,25
2022-11-05T05:18:00.761Z,25
2022-11-05T05:19:03.897Z,25
2022-11-05T05:20:06.158Z,25
2022-11-05T05:21:08.637Z,25
2022-11-05T05:22:10.841Z,25
2022-11-05T05:23:14.326Z,25
2022-11-05T05:24:16.561Z,25
2022-11-05T05:25:18.468Z,25
2022-11-05T05:26:20.657Z,25
2022-11-05T05:27:22.847Z,25
2022-11-05T05:28:25.037Z,25
2022-11-05T05:29:27.509Z,25
2022-11-05T05:30:29.993Z,25
2022-11-05T05:31:31.963Z,24.9
2022-11-05T05:32:34.472Z,25
2022-11-05T05:33:36.943Z,24.9
2022-11-05T05:34:39.416Z,24.9
2022-11-05T05:35:41.598Z,25
2022-11-05T05:36:44.070Z,24.9
2022-11-05T05:37:46.553Z,24.9
2022-11-05T05:38:48.727Z,24.9
2022-11-05T05:39:51.203Z,24.9
2022-11-05T05:40:53.698Z,24.9
2022-11-05T05:41:55.924Z,24.9
2022-11-05T05:42:58.147Z,24.9
2022-11-05T05:44:00.621Z,24.9
2022-11-05T05:45:02.872Z,24.9
2022-11-05T05:46:05.097Z,24.9
2022-11-05T05:47:07.344Z,24.9
2022-11-05T05:48:09.855Z,24.9
2022-11-05T05:49:13.707Z,24.9
2022-11-05T05:50:16.187Z,24.9
2022-11-05T05:51:18.395Z,24.9
2022-11-05T05:52:20.325Z,24.9
2022-11-05T05:53:22.793Z,24.9
2022-11-05T05:55:30.252Z,24.9
2022-11-05T05:56:32.188Z,24.9
2022-11-05T05:57:33.541Z,24.9
2022-11-05T05:58:36.009Z,24.9
2022-11-05T05:59:38.484Z,24.9
2022-11-05T06:00:40.706Z,24.9
2022-11-05T06:01:43.041Z,24.9
2022-11-05T06:02:46.341Z,24.9
2022-11-05T06:03:49.381Z,24.9
2022-11-05T06:04:51.569Z,24.9
2022-11-05T06:05:54.049Z,24.9
2022-11-05T06:06:56.516Z,24.9
2022-11-05T06:07:58.989Z,24.9
2022-11-05T06:09:01.465Z,24.9
2022-11-05T06:10:03.942Z,24.9
2022-11-05T06:11:06.357Z,24.9
2022-11-05T06:12:08.795Z,24.9
2022-11-05T06:13:12.299Z,24.9
2022-11-05T06:14:15.486Z,24.9
2022-11-05T06:15:17.945Z,24.9
2022-11-05T06:16:20.130Z,24.9
2022-11-05T06:17:22.637Z,24.9
2022-11-05T06:18:24.694Z,24.9
2022-11-05T06:19:27.190Z,24.9
2022-11-05T06:20:29.402Z,24.9
2022-11-05T06:21:31.867Z,24.9
2022-11-05T06:22:33.764Z,24.9
2022-11-05T06:23:36.249Z,24.9
2022-11-05T06:24:37.911Z,24.9
2022-11-05T06:26:45.132Z,24.8
2022-11-05T06:27:47.350Z,24.9
2022-11-05T06:28:49.844Z,24.8
2022-11-05T06:29:52.314Z,24.8
2022-11-05T06:30:54.512Z,24.8
2022-11-05T06:31:56.978Z,24.8
2022-11-05T06:32:59.497Z,24.8
2022-11-05T06:34:01.825Z,24.8
2022-11-05T06:35:04.332Z,24.8
2022-11-05T06:36:06.511Z,24.8
2022-11-05T06:37:08.893Z,24.8
2022-11-05T06:38:10.829Z,24.8
2022-11-05T06:39:13.037Z,24.8
2022-11-05T06:40:15.233Z,24.8
2022-11-05T06:41:17.703Z,24.8
2022-11-05T06:42:20.578Z,24.8
2022-11-05T06:43:22.780Z,24.8
2022-11-05T06:44:25.241Z,24.8
2022-11-05T06:45:27.499Z,24.8
2022-11-05T06:46:29.694Z,24.8
2022-11-05T06:47:32.263Z,24.8
2022-11-05T06:48:34.758Z,24.8
2022-11-05T06:49:37.000Z,24.8
2022-11-05T06:50:39.328Z,24.8
2022-11-05T06:51:41.809Z,24.8
2022-11-05T06:52:44.347Z,24.8
2022-11-05T06:53:46.527Z,24.8
2022-11-05T06:54:49.008Z,24.8
2022-11-05T06:55:51.206Z,24.8
2022-11-05T06:56:53.100Z,24.8
2022-11-05T06:57:55.066Z,24.8
2022-11-05T06:58:57.258Z,24.8
2022-11-05T07:01:05.036Z,24.8
2022-11-05T07:02:07.666Z,24.8
2022-11-05T07:03:11.360Z,24.8
2022-11-05T07:04:15.431Z,24.8
2022-11-05T07:05:17.966Z,24.8
2022-11-05T07:06:20.459Z,24.8
2022-11-05T07:07:22.937Z,24.8
2022-11-05T07:08:25.414Z,24.8
2022-11-05T07:09:27.322Z,24.8
2022-11-05T07:10:30.049Z,24.8
2022-11-05T07:11:32.247Z,24.8
2022-11-05T07:12:34.421Z,24.8
2022-11-05T07:13:36.369Z,24.8
2022-11-05T07:14:38.564Z,24.8
2022-11-05T07:15:40.766Z,24.8
2022-11-05T07:16:42.982Z,24.8
2022-11-05T07:17:45.250Z,24.8
2022-11-05T07:18:47.447Z,24.8
2022-11-05T07:19:49.946Z,24.8
2022-11-05T07:20:52.180Z,24.8
2022-11-05T07:21:54.716Z,24.8
2022-11-05T07:22:56.916Z,24.8
2022-11-05T07:23:59.121Z,24.8
2022-11-05T07:25:01.621Z,24.8
2022-11-05T07:26:04.115Z,24.8
2022-11-05T07:27:05.775Z,24.8
2022-11-05T07:28:08.248Z,24.8
2022-11-05T07:29:10.732Z,24.8
2022-11-05T07:30:13.232Z,24.8
2022-11-05T07:31:15.176Z,24.8
2022-11-05T07:32:17.650Z,24.8
2022-11-05T07:33:19.552Z,24.8
2022-11-05T07:34:22.054Z,24.8
2022-11-05T07:35:24.274Z,24.8
2022-11-05T07:36:26.516Z,24.8
2022-11-05T07:37:28.744Z,24.8
2022-11-05T07:38:30.956Z,24.8
2022-11-05T07:39:32.869Z,24.8
2022-11-05T07:40:34.803Z,24.8
2022-11-05T07:41:37.271Z,24.8
2022-11-05T07:42:39.471Z,24.8
2022-11-05T07:43:41.940Z,24.8
2022-11-05T07:44:43.842Z,24.8
2022-11-05T07:45:45.754Z,24.8
2022-11-05T07:46:47.939Z,24.8
2022-11-05T07:47:50.415Z,24.8
2022-11-05T07:48:52.889Z,24.8
2022-11-05T07:49:55.351Z,24.8
2022-11-05T07:50:57.839Z,24.8
2022-11-05T07:52:00.379Z,24.8
2022-11-05T07:53:03.176Z,24.8
2022-11-05T07:54:05.372Z,24.8
2022-11-05T07:55:07.314Z,24.8
2022-11-05T07:56:09.517Z,24.8
2022-11-05T07:57:12.000Z,24.8
2022-11-05T07:58:14.462Z,24.8
2022-11-05T07:59:16.944Z,24.8
2022-11-05T08:00:19.415Z,24.8
2022-11-05T08:01:22.252Z,24.8
2022-11-05T08:02:25.543Z,24.7
2022-11-05T08:03:28.809Z,24.8
2022-11-05T08:04:31.548Z,24.8
2022-11-05T08:05:33.751Z,24.8
2022-11-05T08:06:35.974Z,24.8
2022-11-05T08:07:38.577Z,24.8
2022-11-05T08:08:41.091Z,24.8
2022-11-05T08:09:43.563Z,24.8
2022-11-05T08:10:46.034Z,24.8
2022-11-05T08:11:50.321Z,24.7
2022-11-05T08:12:53.941Z,24.7
2022-11-05T08:13:56.410Z,24.7
2022-11-05T08:14:58.765Z,24.7
2022-11-05T08:16:00.661Z,24.8
2022-11-05T08:17:02.568Z,24.7
2022-11-05T08:18:05.052Z,24.7
2022-11-05T08:19:07.263Z,24.7
2022-11-05T08:20:09.163Z,24.7
2022-11-05T08:21:11.363Z,24.7
2022-11-05T08:22:14.019Z,24.7
2022-11-05T08:23:16.838Z,24.7
2022-11-05T08:24:19.070Z,24.7
2022-11-05T08:25:21.003Z,24.7
2022-11-05T08:26:23.217Z,24.7
2022-11-05T08:27:25.165Z,24.7
2022-11-05T08:28:27.377Z,24.7
2022-11-05T08:29:29.582Z,24.7
2022-11-05T08:30:31.782Z,24.7
2022-11-05T08:31:33.987Z,24.7
2022-11-05T08:32:36.202Z,24.7
2022-11-05T08:33:38.681Z,24.7
2022-11-05T08:34:40.900Z,24.7
2022-11-05T08:35:43.382Z,24.7
2022-11-05T08:36:45.847Z,24.7
2022-11-05T08:37:48.116Z,24.7
2022-11-05T08:38:50.634Z,24.7
2022-11-05T08:39:53.263Z,24.7
2022-11-05T08:40:55.459Z,24.7
2022-11-05T08:41:57.936Z,24.7
2022-11-05T08:43:00.428Z,24.7
2022-11-05T08:44:02.895Z,24.7
2022-11-05T08:45:05.092Z,24.7
2022-11-05T08:46:07.311Z,24.7
2022-11-05T08:47:09.501Z,24.7
2022-11-05T08:48:11.135Z,24.7
2022-11-05T08:49:13.594Z,24.7
2022-11-05T08:50:16.085Z,24.7
2022-11-05T08:51:17.440Z,24.7
2022-11-05T08:52:19.360Z,24.7
2022-11-05T08:53:21.875Z,24.7
2022-11-05T08:54:24.134Z,24.7
2022-11-05T08:55:26.652Z,24.7
2022-11-05T08:56:28.868Z,24.7
2022-11-05T08:57:30.498Z,24.7
2022-11-05T08:58:32.984Z,24.7
2022-11-05T08:59:35.276Z,24.7
2022-11-05T09:00:37.488Z,24.7
2022-11-05T09:01:40.195Z,24.7
2022-11-05T09:02:43.094Z,24.7
2022-11-05T09:03:45.857Z,24.7
2022-11-05T09:04:48.334Z,24.7
2022-11-05T09:05:50.531Z,24.7
2022-11-05T09:06:52.722Z,24.7
2022-11-05T09:08:59.642Z,24.7
2022-11-05T09:10:02.173Z,24.7
2022-11-05T09:11:04.797Z,24.7
2022-11-05T09:14:16.722Z,24.7
2022-11-05T09:15:18.903Z,24.7
2022-11-05T09:16:21.091Z,24.7
2022-11-05T09:17:23.019Z,24.7
2022-11-05T09:18:25.226Z,24.7
2022-11-05T09:19:27.699Z,24.7
2022-11-05T09:20:30.175Z,24.7
2022-11-05T09:21:32.347Z,24.7
2022-11-05T09:23:40.048Z,24.7
2022-11-05T09:24:41.990Z,24.7
2022-11-05T09:25:43.794Z,24.7
2022-11-05T09:26:46.340Z,24.7
2022-11-05T09:27:48.536Z,24.7
2022-11-05T09:28:51.013Z,24.7
2022-11-05T09:29:53.190Z,24.7
2022-11-05T09:30:55.146Z,24.7
2022-11-05T09:31:57.348Z,24.7
2022-11-05T09:32:59.564Z,24.7
2022-11-05T09:34:01.768Z,24.7
2022-11-05T09:35:04.257Z,24.7
2022-11-05T09:36:06.167Z,24.7
2022-11-05T09:37:08.359Z,24.7
2022-11-05T09:38:10.285Z,24.7
2022-11-05T09:39:12.482Z,24.7
2022-11-05T09:40:14.452Z,24.7
2022-11-05T09:41:17.008Z,24.7
2022-11-05T09:42:19.527Z,24.7
2022-11-05T09:43:21.453Z,24.7
2022-11-05T09:44:27.906Z,24.7
2022-11-05T09:45:30.375Z,24.7
2022-11-05T09:46:32.593Z,24.7
2022-11-05T09:47:35.063Z,24.7
2022-11-05T09:48:37.554Z,24.7
2022-11-05T09:49:39.754Z,24.6
2022-11-05T09:50:42.239Z,24.6
2022-11-05T09:51:44.709Z,24.7
2022-11-05T09:52:46.909Z,24.7
2022-11-05T09:53:49.095Z,24.6
2022-11-05T09:54:51.043Z,24.7
2022-11-05T09:55:53.302Z,24.6
2022-11-05T09:56:55.562Z,24.7
2022-11-05T09:57:57.827Z,24.6
2022-11-05T09:59:00.021Z,24.6
2022-11-05T10:00:01.990Z,24.6
2022-11-05T10:01:04.427Z,24.6
2022-11-05T10:02:06.991Z,24.6
2022-11-05T10:03:11.273Z,24.6
2022-11-05T10:04:14.479Z,24.7
2022-11-05T10:05:17.170Z,24.6
2022-11-05T10:06:19.626Z,24.6
2022-11-05T10:07:22.109Z,24.6
2022-11-05T10:08:23.737Z,24.6
2022-11-05T10:09:25.726Z,24.6
2022-11-05T10:10:28.204Z,24.6
2022-11-05T10:11:30.432Z,24.6
2022-11-05T10:12:32.713Z,24.6
2022-11-05T10:13:35.336Z,24.6
2022-11-05T10:14:37.536Z,24.6
2022-11-05T10:15:39.503Z,24.6
2022-11-05T10:16:41.427Z,24.6
2022-11-05T10:17:43.925Z,24.6
2022-11-05T10:18:46.410Z,24.6
2022-11-05T10:19:48.892Z,24.6
2022-11-05T10:20:51.109Z,24.6
2022-11-05T10:22:58.592Z,24.6
2022-11-05T10:24:00.507Z,24.6
2022-11-05T10:25:02.717Z,24.6
2022-11-05T10:26:04.657Z,24.6
2022-11-05T10:27:06.904Z,24.6
2022-11-05T10:28:09.156Z,24.6
2022-11-05T10:29:11.583Z,24.6
2022-11-05T10:30:13.210Z,24.6
2022-11-05T10:31:15.138Z,24.6
2022-11-05T10:32:17.624Z,24.6
2022-11-05T10:33:19.261Z,24.6
2022-11-05T10:34:21.449Z,24.6
2022-11-05T10:35:23.681Z,24.6
2022-11-05T10:36:25.617Z,24.6
2022-11-05T10:37:27.268Z,24.6
2022-11-05T10:38:29.477Z,24.6
2022-11-05T10:39:31.422Z,24.6
2022-11-05T10:40:33.641Z,24.6
2022-11-05T10:41:36.132Z,24.6
2022-11-05T10:42:38.097Z,24.6
2022-11-05T10:43:40.803Z,24.6
2022-11-05T10:44:43.326Z,24.6
2022-11-05T10:45:45.260Z,24.6
2022-11-05T10:46:47.445Z,24.6
2022-11-05T10:47:49.928Z,24.6
2022-11-05T10:48:52.403Z,24.6
2022-11-05T10:49:54.610Z,24.6
2022-11-05T10:50:56.809Z,24.6
2022-11-05T10:51:59.032Z,24.6
2022-11-05T10:53:01.508Z,24.6
2022-11-05T10:54:03.987Z,24.6
2022-11-05T10:55:06.466Z,24.6
2022-11-05T10:56:08.959Z,24.6
2022-11-05T10:57:11.433Z,24.6
2022-11-05T10:58:13.664Z,24.6
2022-11-05T10:59:15.964Z,24.6
2022-11-05T11:00:18.678Z,24.6
2022-11-05T11:01:21.632Z,24.6
2022-11-05T11:02:24.673Z,24.6
2022-11-05T11:03:26.875Z,24.6
2022-11-05T11:05:33.528Z,24.6
2022-11-05T11:06:36.000Z,24.6
2022-11-05T11:07:38.210Z,24.6
2022-11-05T11:08:40.419Z,24.6
2022-11-05T11:09:42.064Z,24.6
2022-11-05T11:10:44.246Z,24.6
2022-11-05T11:11:46.724Z,24.6
2022-11-05T11:12:48.944Z,24.6
2022-11-05T11:13:51.459Z,24.6
2022-11-05T11:14:54.167Z,24.6
2022-11-05T11:15:56.699Z,24.6
2022-11-05T11:16:58.918Z,24.6
2022-11-05T11:18:01.124Z,24.6
2022-11-05T11:19:02.766Z,24.6
2022-11-05T11:20:04.984Z,24.6
2022-11-05T11:21:07.194Z,24.6
2022-11-05T11:22:09.098Z,24.6
2022-11-05T11:23:12.348Z,24.6
2022-11-05T11:24:16.337Z,24.6
2022-11-05T11:25:18.817Z,24.6
2022-11-05T11:26:21.325Z,24.6
2022-11-05T11:27:23.528Z,24.6
2022-11-05T11:28:26.010Z,24.6
2022-11-05T11:29:28.314Z,24.6
2022-11-05T11:30:30.644Z,24.6
2022-11-05T11:31:33.228Z,24.6
2022-11-05T11:32:35.744Z,24.6
2022-11-05T11:33:37.711Z,24.6
2022-11-05T11:34:39.107Z,24.6
2022-11-05T11:35:41.323Z,24.6
2022-11-05T11:36:43.524Z,24.6
2022-11-05T11:37:45.177Z,24.6
2022-11-05T11:38:47.104Z,24.6
2022-11-05T11:39:49.587Z,24.6
2022-11-05T11:40:51.790Z,24.6
2022-11-05T11:41:53.735Z,24.6
2022-11-05T11:42:56.219Z,24.6
2022-11-05T11:43:58.692Z,24.6
2022-11-05T11:45:01.116Z,24.6
2022-11-05T11:47:08.435Z,24.6
2022-11-05T11:48:10.871Z,24.6
2022-11-05T11:49:13.087Z,24.6
2022-11-05T11:50:15.155Z,24.6
2022-11-05T11:51:17.829Z,24.6
2022-11-05T11:52:19.761Z,24.6
2022-11-05T11:53:22.246Z,24.6
2022-11-05T11:55:29.458Z,24.6
2022-11-05T11:56:31.661Z,24.6
2022-11-05T11:57:33.601Z,24.6
2022-11-05T11:58:35.509Z,24.6
2022-11-05T12:00:42.792Z,24.6
2022-11-05T12:01:44.941Z,24.6
2022-11-05T12:02:47.574Z,24.6
2022-11-05T12:03:50.263Z,24.6
2022-11-05T12:04:52.173Z,24.6
2022-11-05T12:05:54.651Z,24.6
2022-11-05T12:06:57.142Z,24.6
2022-11-05T12:07:59.348Z,24.6
2022-11-05T12:10:05.708Z,24.6
2022-11-05T12:11:07.921Z,24.6
2022-11-05T12:12:10.124Z,24.6
2022-11-05T12:13:13.166Z,24.6
2022-11-05T12:14:16.257Z,24.6
2022-11-05T12:15:18.454Z,24.6
2022-11-05T12:16:20.984Z,24.6
2022-11-05T12:17:23.467Z,24.6
2022-11-05T12:18:25.795Z,24.6
2022-11-05T12:19:28.366Z,24.6
2022-11-05T12:20:30.572Z,24.6
2022-11-05T12:22:38.037Z,24.6
2022-11-05T12:23:40.517Z,24.6
2022-11-05T12:24:42.741Z,24.6
2022-11-05T12:25:44.957Z,24.6
2022-11-05T12:26:47.164Z,24.6
2022-11-05T12:27:49.085Z,24.6
2022-11-05T12:29:55.729Z,24.6
2022-11-05T12:30:57.936Z,24.6
2022-11-05T12:32:00.435Z,24.5
2022-11-05T12:33:03.228Z,24.5
2022-11-05T12:34:06.368Z,24.6
2022-11-05T12:35:08.879Z,24.6
2022-11-05T12:36:11.080Z,24.6
2022-11-05T12:37:13.030Z,24.6
2022-11-05T12:38:15.284Z,24.6
2022-11-05T12:39:17.207Z,24.6
2022-11-05T12:40:19.422Z,24.6
2022-11-05T12:41:21.894Z,24.6
2022-11-05T12:42:23.287Z,24.5
2022-11-05T12:43:25.485Z,24.6
2022-11-05T12:44:27.667Z,24.5
2022-11-05T12:45:29.869Z,24.6
2022-11-05T12:46:31.799Z,24.6
2022-11-05T12:47:34.309Z,24.6
2022-11-05T12:48:38.133Z,24.6
2022-11-05T12:49:40.386Z,24.5
2022-11-05T12:50:42.626Z,24.6
2022-11-05T12:51:44.828Z,24.5
2022-11-05T12:52:46.762Z,24.5
2022-11-05T12:53:48.975Z,24.6
2022-11-05T12:54:51.457Z,24.5
2022-11-05T12:55:53.365Z,24.6
2022-11-05T12:56:55.568Z,24.5
2022-11-05T12:57:57.764Z,24.5
2022-11-05T12:58:59.699Z,24.5
2022-11-05T13:00:02.177Z,24.5
2022-11-05T13:01:04.137Z,24.5
2022-11-05T13:02:07.195Z,24.5
2022-11-05T13:03:10.547Z,24.5
2022-11-05T13:04:13.565Z,24.5
2022-11-05T13:05:16.452Z,24.5
2022-11-05T13:06:18.716Z,24.5
2022-11-05T13:07:20.656Z,24.6
2022-11-05T13:08:22.871Z,24.6
2022-11-05T13:09:25.365Z,24.5
2022-11-05T13:10:27.282Z,24.5
2022-11-05T13:11:29.467Z,24.6
2022-11-05T13:12:31.937Z,24.6
2022-11-05T13:13:33.872Z,24.6
2022-11-05T13:14:36.350Z,24.5
2022-11-05T13:15:38.837Z,24.6
2022-11-05T13:16:41.376Z,24.6
2022-11-05T13:17:44.150Z,24.6
2022-11-05T13:18:46.700Z,24.6
2022-11-05T13:19:48.905Z,24.6
2022-11-05T13:20:51.280Z,24.6
2022-11-05T13:21:53.883Z,24.6
2022-11-05T13:22:55.807Z,24.6
2022-11-05T13:23:58.279Z,24.6
2022-11-05T13:25:00.213Z,24.6
2022-11-05T13:26:02.413Z,24.6
2022-11-05T13:27:04.353Z,24.6
2022-11-05T13:28:06.842Z,24.6
2022-11-05T13:29:08.758Z,24.6
2022-11-05T13:30:11.242Z,24.6
2022-11-05T13:31:13.739Z,24.6
2022-11-05T13:32:16.219Z,24.6
2022-11-05T13:33:18.700Z,24.6
2022-11-05T13:34:21.200Z,24.6
2022-11-05T13:35:23.158Z,24.6
2022-11-05T13:36:25.672Z,24.6
2022-11-05T13:37:28.187Z,24.6
2022-11-05T13:38:30.115Z,24.6
2022-11-05T13:39:32.609Z,24.6
2022-11-05T13:40:34.797Z,24.6
2022-11-05T13:41:36.997Z,24.6
2022-11-05T13:42:39.468Z,24.6
2022-11-05T13:43:41.696Z,24.6
2022-11-05T13:44:43.600Z,24.6
2022-11-05T13:45:46.078Z,24.6
2022-11-05T13:46:48.554Z,24.6
2022-11-05T13:47:51.034Z,24.6
2022-11-05T13:48:52.960Z,24.6
2022-11-05T13:49:55.471Z,24.6
2022-11-05T13:50:57.682Z,24.5
2022-11-05T13:52:00.032Z,24.5
2022-11-05T13:53:02.271Z,24.6
2022-11-05T13:54:05.308Z,24.6
2022-11-05T13:55:07.232Z,24.6
2022-11-05T13:56:09.137Z,24.6
2022-11-05T13:57:10.784Z,24.6
2022-11-05T13:58:12.694Z,24.6
2022-11-05T13:59:15.168Z,24.6
2022-11-05T14:00:17.658Z,24.6
2022-11-05T14:01:20.109Z,24.6
2022-11-05T14:02:23.167Z,24.6
2022-11-05T14:03:25.368Z,24.5
2022-11-05T14:04:27.306Z,24.6
2022-11-05T14:05:29.596Z,24.5
2022-11-05T14:06:31.535Z,24.5
2022-11-05T14:07:33.786Z,24.6
2022-11-05T14:08:35.755Z,24.5
2022-11-05T14:09:38.241Z,24.5